Hauptseite
METAR-TAF:

METAR-TAF

Flughäfen :

RAF Lossiemouth

Lossiemouth, Schottland

Breite: 57-43N, Länge: 003-19W, Höhe: 13 m

Beobachtung

Neuester Wetterbericht von vor 22 Minuten, um 15:50 UTC
Wind 14 kt aus Süd/Südwest
Temperatur 15°C
Luftfeuchtigkeit 77%
Luftdruck 1005 hPa
Sichtweite 10 km oder mehr
Leicht bewölkt in der Höhe von 3000 ft
Durchbrochene Bewölkung in der Höhe von 24000 ft

METAR: EGQS 141550Z 21014KT 9999 FEW030 BKN240 15/11 Q1005 BLU NOSIG

Zeit: 16:12 (16:12 UTC)

Prognose

Neuester Wetterbericht von vor 2 Stunden und 47 Minuten, um 13:25 UTC
Gültige Prognose vom 14 um 15 UTC bis 15 um 09 UTC
Wind 12 kt aus Süd/Südwest
Sichtweite 10 km oder mehr
Aufgelockert bewölkt in der Höhe von 3500 ft
Wahrscheinlichkeit 40% :
Zeitweise
vom 14 um 15 UTC bis 15 um 09 UTC
Wind 18 kt aus Süd/Südwest, Böen bis zu 28 kt

TAF: EGQS 141325Z 1415/1509 20012KT 9999 SCT035 PROB40 TEMPO 1415/1509 21018G28KT

Wetterbeobachtungen und Prognosen von mehr als 4000 Flughäfen (METAR und TAF Bericht).

Die verfügbaren Stationen werden durch gelbe und rote Markierungen auf der Karte dargestellt.

Führen Sie die Maus auf sie, um den Namen der Station zu sehen.

Darauf klicken, um die Beobachtung von Wetterbeobachtungen und Prognosen zu sehen.

Um die Karte zu ändern : klicken Sie auf den grünen Tasten mit einem schwarzen Kreuz Zum Vergrößern, auf den grünen Button mit einem Gedankenstrich zu verkleinern, oder auf die grünen Pfeile für benachbarte Karten.


METAR-TAF: